createdAt,value
2023-09-08T00:03:51.805Z,91.80
2023-09-08T00:08:55.535Z,92.20
2023-09-08T00:13:59.232Z,92.30
2023-09-08T00:19:02.931Z,92.50
2023-09-08T00:24:06.927Z,93.00
2023-09-08T00:29:10.538Z,92.90
2023-09-08T00:34:14.356Z,93.10
2023-09-08T00:39:18.062Z,93.20
2023-09-08T00:44:22.206Z,93.20
2023-09-08T00:49:26.211Z,94.00
2023-09-08T00:54:29.853Z,94.00
2023-09-08T00:59:34.742Z,94.30
2023-09-08T01:04:42.198Z,94.20
2023-09-08T01:09:48.517Z,94.50
2023-09-08T01:14:52.565Z,94.20
2023-09-08T01:19:59.536Z,94.30
2023-09-08T01:25:23.442Z,94.40
2023-09-08T01:30:33.866Z,94.60
2023-09-08T01:35:37.832Z,94.60
2023-09-08T01:40:41.480Z,95.00
2023-09-08T01:45:45.308Z,94.80
2023-09-08T01:50:49.082Z,95.10
2023-09-08T01:55:52.892Z,95.30
2023-09-08T02:01:01.312Z,95.40
2023-09-08T02:06:05.784Z,95.50
2023-09-08T02:11:09.652Z,95.40
2023-09-08T02:16:17.859Z,95.80
2023-09-08T02:21:23.024Z,96.00
2023-09-08T02:26:28.683Z,96.00
2023-09-08T02:31:32.331Z,96.30
2023-09-08T02:36:36.000Z,96.50
2023-09-08T02:41:40.528Z,96.40
2023-09-08T02:46:44.167Z,96.80
2023-09-08T02:51:48.376Z,96.80
2023-09-08T02:56:53.114Z,97.10
2023-09-08T03:01:56.824Z,97.70
2023-09-08T03:07:00.528Z,97.80
2023-09-08T03:12:05.907Z,98.50
2023-09-08T03:17:10.330Z,98.60
2023-09-08T03:22:14.853Z,98.80
2023-09-08T03:27:18.413Z,98.80
2023-09-08T03:32:22.196Z,98.90
2023-09-08T03:37:27.418Z,98.80
2023-09-08T03:42:32.198Z,98.90
2023-09-08T03:47:35.966Z,98.70
2023-09-08T03:52:39.795Z,98.90
2023-09-08T03:57:43.620Z,98.90
2023-09-08T04:02:47.192Z,99.00
2023-09-08T04:07:50.804Z,98.90
2023-09-08T04:12:54.540Z,99.00
2023-09-08T04:18:01.931Z,99.10
2023-09-08T04:23:05.675Z,99.00
2023-09-08T04:28:09.305Z,99.40
2023-09-08T04:33:13.764Z,99.40
2023-09-08T04:38:17.528Z,99.30
2023-09-08T04:43:21.414Z,99.50
2023-09-08T04:48:25.089Z,99.90
2023-09-08T04:53:29.118Z,99.90
2023-09-08T04:58:33.229Z,99.90
2023-09-08T05:03:37.638Z,99.90
2023-09-08T05:08:41.482Z,99.90
2023-09-08T05:13:45.172Z,99.90
2023-09-08T05:18:49.206Z,99.90
2023-09-08T05:23:52.904Z,99.90
2023-09-08T05:28:56.385Z,99.90
2023-09-08T05:34:00.123Z,99.90
2023-09-08T05:39:03.731Z,99.90
2023-09-08T05:44:07.470Z,99.90
2023-09-08T05:49:11.360Z,99.90
2023-09-08T05:54:14.834Z,99.90
2023-09-08T05:59:18.506Z,99.90
2023-09-08T06:04:22.300Z,99.90
2023-09-08T06:09:26.154Z,99.70
2023-09-08T06:14:30.821Z,99.80
2023-09-08T06:19:35.718Z,99.60
2023-09-08T06:24:39.512Z,99.40
2023-09-08T06:29:44.671Z,99.20
2023-09-08T06:34:48.384Z,98.90
2023-09-08T06:39:52.046Z,98.80
2023-09-08T06:44:55.700Z,98.30
2023-09-08T06:49:59.383Z,98.20
2023-09-08T06:55:04.116Z,98.10
2023-09-08T07:00:08.720Z,98.00
2023-09-08T07:05:12.411Z,97.80
2023-09-08T07:10:16.633Z,97.30
2023-09-08T07:15:20.400Z,96.40
2023-09-08T07:20:23.906Z,95.90
2023-09-08T07:25:27.549Z,95.30
2023-09-08T07:30:33.649Z,94.70
2023-09-08T07:35:41.728Z,94.30
2023-09-08T07:40:45.283Z,93.80
2023-09-08T07:45:48.972Z,93.20
2023-09-08T07:50:52.761Z,92.70
2023-09-08T07:56:05.635Z,92.20
2023-09-08T08:01:09.591Z,91.50
2023-09-08T08:06:13.544Z,91.10
2023-09-08T08:11:21.534Z,90.60
2023-09-08T08:16:25.716Z,89.40
2023-09-08T08:21:29.735Z,89.10
2023-09-08T08:26:34.199Z,88.60
2023-09-08T08:31:37.910Z,87.50
2023-09-08T08:36:41.836Z,86.90
2023-09-08T08:41:46.146Z,85.90
2023-09-08T08:46:51.740Z,84.40
2023-09-08T08:51:55.676Z,83.00
2023-09-08T08:57:01.014Z,81.50
2023-09-08T09:02:05.514Z,80.60
2023-09-08T09:07:09.641Z,79.90
2023-09-08T09:12:13.824Z,79.50
2023-09-08T09:17:17.570Z,78.80
2023-09-08T09:22:23.084Z,77.00
2023-09-08T09:27:27.501Z,76.30
2023-09-08T09:32:32.264Z,75.30
2023-09-08T09:37:37.100Z,74.30
2023-09-08T09:42:43.861Z,73.10
2023-09-08T09:47:47.877Z,72.80
2023-09-08T09:52:51.688Z,72.90
2023-09-08T09:58:01.911Z,71.30
2023-09-08T10:03:07.039Z,70.20
2023-09-08T10:08:10.785Z,69.10
2023-09-08T10:13:17.899Z,69.00
2023-09-08T10:18:23.218Z,69.60
2023-09-08T10:23:34.616Z,68.50
2023-09-08T10:28:39.457Z,67.90
2023-09-08T10:33:45.003Z,68.00
2023-09-08T10:38:52.051Z,67.20
2023-09-08T10:44:05.896Z,67.60
2023-09-08T10:49:11.395Z,67.50
2023-09-08T10:54:51.349Z,67.80
2023-09-08T11:00:02.571Z,67.20
2023-09-08T11:05:16.880Z,66.40
2023-09-08T11:10:20.775Z,65.70
2023-09-08T11:15:24.697Z,65.20
2023-09-08T11:20:29.127Z,63.60
2023-09-08T11:25:34.709Z,62.90
2023-09-08T11:30:38.434Z,62.40
2023-09-08T11:35:44.624Z,60.90
2023-09-08T11:40:48.570Z,60.70
2023-09-08T11:45:52.489Z,59.40
2023-09-08T11:50:56.507Z,59.30
2023-09-08T11:56:00.485Z,59.10
2023-09-08T12:01:05.747Z,57.80
2023-09-08T12:06:09.596Z,57.60
2023-09-08T12:11:13.677Z,57.00
2023-09-08T12:16:23.562Z,56.10
2023-09-08T12:21:27.610Z,55.60
2023-09-08T12:26:31.350Z,55.90
2023-09-08T12:31:35.578Z,55.70
2023-09-08T12:36:45.316Z,53.90
2023-09-08T12:41:48.975Z,53.40
2023-09-08T12:46:52.784Z,53.70
2023-09-08T12:51:56.454Z,53.60
2023-09-08T12:57:00.133Z,52.40
2023-09-08T13:02:04.735Z,52.50
2023-09-08T13:07:08.368Z,53.00
2023-09-08T13:12:14.336Z,52.80
2023-09-08T13:17:17.973Z,53.10
2023-09-08T13:22:21.922Z,53.10
2023-09-08T13:27:25.725Z,53.00
2023-09-08T13:32:30.158Z,53.00
2023-09-08T13:37:35.518Z,52.80
2023-09-08T13:42:39.394Z,52.90
2023-09-08T13:47:43.240Z,53.20
2023-09-08T13:52:47.805Z,53.30
2023-09-08T13:57:55.426Z,53.30
2023-09-08T14:03:01.163Z,53.10
2023-09-08T14:13:19.186Z,52.90
2023-09-08T14:18:22.882Z,52.40
2023-09-08T14:23:27.147Z,52.90
2023-09-08T14:28:33.253Z,52.80
2023-09-08T14:33:36.897Z,52.80
2023-09-08T14:38:40.712Z,53.00
2023-09-08T14:43:44.389Z,52.70
2023-09-08T14:48:48.075Z,52.50
2023-09-08T14:53:51.769Z,51.90
2023-09-08T14:58:55.373Z,51.60
2023-09-08T15:03:59.235Z,50.60
2023-09-08T15:09:03.151Z,50.90
2023-09-08T15:14:07.691Z,50.50
2023-09-08T15:19:11.476Z,50.20
2023-09-08T15:24:14.879Z,49.00
2023-09-08T15:29:21.222Z,48.80
2023-09-08T15:34:27.345Z,48.00
2023-09-08T15:39:31.295Z,48.10
2023-09-08T15:44:35.055Z,47.80
2023-09-08T15:49:38.702Z,47.00
2023-09-08T15:54:42.421Z,47.00
2023-09-08T15:59:46.437Z,46.80
2023-09-08T16:04:50.210Z,46.40
2023-09-08T16:09:53.901Z,47.00
2023-09-08T16:14:57.495Z,47.60
2023-09-08T16:20:01.150Z,48.10
2023-09-08T16:25:05.351Z,48.60
2023-09-08T16:30:09.535Z,49.50
2023-09-08T16:35:14.564Z,50.20
2023-09-08T16:40:18.421Z,51.30
2023-09-08T16:45:22.014Z,52.60
2023-09-08T16:50:25.561Z,53.70
2023-09-08T16:55:29.087Z,54.50
2023-09-08T17:00:32.915Z,55.70
2023-09-08T17:05:36.660Z,55.90
2023-09-08T17:10:40.404Z,56.70
2023-09-08T17:15:44.127Z,57.40
2023-09-08T17:20:47.896Z,57.40
2023-09-08T17:25:52.765Z,57.90
2023-09-08T17:30:56.491Z,59.30
2023-09-08T17:36:00.237Z,59.90
2023-09-08T17:41:03.856Z,60.60
2023-09-08T17:46:08.263Z,61.60
2023-09-08T17:51:12.289Z,61.80
2023-09-08T17:56:17.361Z,62.70
2023-09-08T18:01:21.078Z,63.90
2023-09-08T18:06:24.529Z,64.50
2023-09-08T18:11:28.212Z,64.80
2023-09-08T18:16:33.514Z,64.50
2023-09-08T18:21:38.510Z,65.40
2023-09-08T18:26:42.314Z,65.90
2023-09-08T18:31:46.109Z,67.90
2023-09-08T18:36:50.018Z,67.00
2023-09-08T18:41:53.896Z,67.90
2023-09-08T18:46:57.689Z,68.50
2023-09-08T18:52:01.424Z,67.80
2023-09-08T18:57:05.351Z,68.20
2023-09-08T19:02:09.354Z,68.50
2023-09-08T19:07:13.203Z,68.00
2023-09-08T19:12:19.959Z,69.30
2023-09-08T19:17:23.915Z,69.10
2023-09-08T19:22:27.729Z,71.20
2023-09-08T19:27:31.137Z,71.10
2023-09-08T19:32:35.733Z,71.80
2023-09-08T19:37:39.678Z,72.40
2023-09-08T19:42:43.319Z,73.20
2023-09-08T19:47:47.378Z,74.20
2023-09-08T19:52:51.146Z,76.50
2023-09-08T19:57:55.036Z,75.00
2023-09-08T20:02:59.076Z,74.90
2023-09-08T20:08:03.165Z,75.70
2023-09-08T20:13:07.082Z,76.40
2023-09-08T20:18:10.849Z,77.20
2023-09-08T20:23:14.844Z,78.20
2023-09-08T20:28:18.768Z,78.70
2023-09-08T20:33:23.720Z,77.70
2023-09-08T20:38:27.541Z,81.10
2023-09-08T20:43:31.342Z,78.80
2023-09-08T20:48:38.521Z,79.60
2023-09-08T20:53:43.301Z,80.00
2023-09-08T20:58:46.965Z,79.70
2023-09-08T21:03:50.786Z,80.80
2023-09-08T21:08:54.629Z,80.10
2023-09-08T21:13:58.336Z,80.30
2023-09-08T21:19:02.031Z,81.60
2023-09-08T21:24:06.163Z,80.80
2023-09-08T21:29:09.738Z,81.00
2023-09-08T21:34:13.403Z,81.50
2023-09-08T21:39:17.135Z,81.90
2023-09-08T21:44:21.110Z,81.70
2023-09-08T21:49:25.032Z,82.30
2023-09-08T21:54:28.778Z,82.70
2023-09-08T21:59:32.333Z,83.20
2023-09-08T22:04:35.889Z,83.10
2023-09-08T22:09:39.339Z,83.40
2023-09-08T22:14:42.958Z,83.90
2023-09-08T22:19:46.521Z,84.50
2023-09-08T22:24:50.587Z,84.20
2023-09-08T22:29:53.997Z,84.20
2023-09-08T22:34:57.863Z,84.50
2023-09-08T22:40:01.370Z,84.40
2023-09-08T22:45:06.348Z,84.40
2023-09-08T22:50:13.407Z,85.40
2023-09-08T22:55:24.442Z,86.30
2023-09-08T23:00:29.734Z,85.40
2023-09-08T23:05:33.273Z,86.10
2023-09-08T23:10:37.285Z,86.80
2023-09-08T23:15:40.807Z,86.80
2023-09-08T23:20:44.421Z,86.40
2023-09-08T23:25:50.894Z,87.20
2023-09-08T23:30:54.838Z,87.30
2023-09-08T23:35:58.505Z,87.30
2023-09-08T23:41:02.057Z,88.60
2023-09-08T23:46:06.114Z,88.30
2023-09-08T23:51:10.090Z,89.60
2023-09-08T23:56:13.505Z,88.70
